Nett Lake, Minnesota
Current Conditions -  °F | °C
As of 1:53 AM on Wednesday 26 Nov 2014 (Local Time) from KORB Reporting Station
Overcast Overcast  
Wind Chill: 16°   Ceiling: 2700
Heat Index: 16°   Visibility: 10mi
Dew Point:   Wind: 0mph
Humidity: 73%   Direction: NA
Pressure: 30.05"   Gusts: NA
Location:  48.11°N, 93.09°W
Report Text: KORB 260753Z AUTO 00000KT 10SM BKN027 OVC033 M09/M13 A3005 RMK AO2
Loading
Personal Weather Stations






























Interactive Weather Map New forecast layout! Learn more

10-Day Weather Forecast

Advertisements
Track Severe Weather on mobile